Osg Vision — WDF2493 — position and weather

sailwx.info

Track history (hours):
 
Tides and Currents Weather Stations Pressure Air Temp Water Temp Dewpoint Dewpoint Depression Visibility Wind Speed Wind Dir Waves Ship Positions

Osg Vision

Owner: OSG Ship Management Inc., Tampa, FL. More information available from US FCC via Universal Licensing System and Coast Guard Vessel Documentation Center.

Last reported at 2018-Apr-24 13:58 UTC. Time now 2018-Apr-24 14:29 UTC.
Position N 39°52' W 075°13'.

Length 213 m; draft 7.9 m.

Type: Tanker. MMSI: 369235000.

Date/timePositionNaut miles runAvg speedWind from/ knotsBaromVisibWave heightAir tempDewpointWater temp
2018-Apr-24 13:58N 39°52' W 075°13'0 0.1
2018-Apr-24 13:28N 39°52' W 075°13'0 0.1
2018-Apr-24 12:58N 39°52' W 075°13'0 0.0
2018-Apr-24 12:26N 39°52' W 075°13'0 0.0
2018-Apr-24 11:57N 39°52' W 075°13'0 0.0
2018-Apr-24 11:30N 39°52' W 075°13'0 0.0
2018-Apr-24 11:00N 39°52' W 075°13'0 0.0
2018-Apr-24 10:30N 39°52' W 075°13'0 0.0
2018-Apr-24 10:00N 39°52' W 075°13'0 0.0
2018-Apr-24 09:30N 39°52' W 075°13'0 0.2
2018-Apr-24 09:01N 39°52' W 075°13'0 0.4
2018-Apr-24 08:30N 39°52' W 075°13'0 0.0
2018-Apr-24 08:00N 39°52' W 075°13'0 0.0
2018-Apr-24 07:30N 39°52' W 075°13'0 0.5
2018-Apr-24 07:00N 39°52' W 075°13'0 1.0
2018-Apr-24 06:30N 39°51' W 075°14'0 0.0
2018-Apr-24 06:00N 39°51' W 075°14'0 0.0
2018-Apr-24 05:30N 39°51' W 075°14'0 0.0
2018-Apr-24 05:00N 39°51' W 075°14'0 0.0
2018-Apr-24 04:31N 39°51' W 075°14'1 1.4
2018-Apr-24 04:00N 39°52' W 075°13'0 0.6
2018-Apr-24 03:30N 39°52' W 075°13'0 0.0
2018-Apr-24 03:00N 39°52' W 075°13'0 0.0
2018-Apr-24 02:30N 39°52' W 075°13'0 0.0
2018-Apr-24 02:00N 39°52' W 075°13'0 0.0
2018-Apr-24 01:30N 39°52' W 075°13'0 0.0
2018-Apr-24 01:00N 39°52' W 075°13'0 0.0
2018-Apr-24 00:30N 39°52' W 075°13'0 0.0
2018-Apr-24 00:00N 39°52' W 075°13'0 0.0
2018-Apr-23 23:30N 39°52' W 075°13'0 0.0
2018-Apr-23 23:00N 39°52' W 075°13'0 0.0
2018-Apr-23 22:30N 39°52' W 075°13'0 0.0
2018-Apr-23 22:00N 39°52' W 075°13'0 0.0
2018-Apr-23 21:30N 39°52' W 075°13'0 0.0
2018-Apr-23 21:00N 39°52' W 075°13'0 0.0
2018-Apr-23 20:30N 39°52' W 075°13'0 0.0
2018-Apr-23 20:00N 39°52' W 075°13'0 0.0
2018-Apr-23 19:30N 39°52' W 075°13'0 0.0
2018-Apr-23 19:00N 39°52' W 075°13'0 0.0
2018-Apr-23 18:30N 39°52' W 075°13'0 0.0
2018-Apr-23 18:00N 39°52' W 075°13'0 0.0
2018-Apr-23 17:30N 39°52' W 075°13'0 0.0
2018-Apr-23 16:57N 39°52' W 075°13'0 0.0
2018-Apr-23 16:30N 39°52' W 075°13'0 0.0
2018-Apr-23 16:00N 39°52' W 075°13'0 0.0
2018-Apr-23 15:30N 39°52' W 075°13'0 0.0
2018-Apr-23 15:00N 39°52' W 075°13'0 0.0
2018-Apr-23 14:30N 39°52' W 075°13'0 0.0
2018-Apr-23 14:00N 39°52' W 075°13'0 0.0
2018-Apr-23 13:30N 39°52' W 075°13'0 0.0
2018-Apr-23 13:00N 39°52' W 075°13'0 0.0
2018-Apr-23 12:30N 39°52' W 075°13'0 0.0
2018-Apr-23 12:00N 39°52' W 075°13'0 0.0
2018-Apr-23 11:30N 39°52' W 075°13'0 0.0
2018-Apr-23 11:00N 39°52' W 075°13'0 0.0
2018-Apr-23 10:30N 39°52' W 075°13'0 0.0
2018-Apr-23 10:00N 39°52' W 075°13'0 0.0
2018-Apr-23 09:30N 39°52' W 075°13'0 0.0
2018-Apr-23 09:00N 39°52' W 075°13'0 0.0
2018-Apr-23 08:30N 39°52' W 075°13'0 0.0
2018-Apr-23 08:00N 39°52' W 075°13'0 0.0
2018-Apr-23 07:30N 39°52' W 075°13'0 0.0
2018-Apr-23 07:00N 39°52' W 075°13'0 0.0
2018-Apr-23 06:30N 39°52' W 075°13'0 0.0
2018-Apr-23 06:00N 39°52' W 075°13'0 0.0
2018-Apr-23 05:30N 39°52' W 075°13'0 0.0
2018-Apr-23 05:00N 39°52' W 075°13'0 0.9
2018-Apr-23 04:30N 39°52' W 075°13'4 7.8
2018-Apr-23 04:01N 39°51' W 075°18'4 8.0
2018-Apr-23 03:30N 39°49' W 075°23'4 8.4
2018-Apr-23 03:00N 39°47' W 075°28'4 8.8
2018-Apr-23 02:31N 39°43' W 075°30'4 8.6
2018-Apr-23 02:00N 39°39' W 075°33'4 7.4
2018-Apr-23 01:30N 39°35' W 075°34'4 8.6
2018-Apr-23 01:01N 39°31' W 075°33'4 8.7
2018-Apr-23 00:30N 39°27' W 075°33'5 9.4
2018-Apr-23 00:00N 39°23' W 075°29'5 9.4
2018-Apr-22 23:30N 39°20' W 075°25'5 9.7
2018-Apr-22 22:59N 39°16' W 075°21'510.1
2018-Apr-22 22:30N 39°12' W 075°17'510.2
2018-Apr-22 22:00N 39°08' W 075°14'510.1
2018-Apr-22 21:30N 39°04' W 075°10'611.4
2018-Apr-22 21:00N 38°58' W 075°07'4 0.5
2018-Apr-22 12:14N 38°54' W 075°09'0 0.1
2018-Apr-22 12:00N 38°54' W 075°09'1 2.2
2018-Apr-22 11:28N 38°55' W 075°07'1 1.8
2018-Apr-22 10:58N 38°56' W 075°08'0 0.0
2018-Apr-22 10:25N 38°56' W 075°08'0 0.0
2018-Apr-22 09:58N 38°56' W 075°08'0 0.1
2018-Apr-22 09:25N 38°56' W 075°08'0 0.0
2018-Apr-22 09:00N 38°56' W 075°08'0 0.1
2018-Apr-22 05:47N 38°56' W 075°08'0 0.0
2018-Apr-22 05:29N 38°56' W 075°08'0 0.0
2018-Apr-22 05:00N 38°56' W 075°08'0 0.0
2018-Apr-22 04:21N 38°56' W 075°08'0 0.1
2018-Apr-22 04:00N 38°56' W 075°08'0 0.0
2018-Apr-22 03:26N 38°56' W 075°08'0 0.0
2018-Apr-22 02:59N 38°56' W 075°08'0 0.0
2018-Apr-22 02:29N 38°56' W 075°08'0 0.0
2018-Apr-22 01:59N 38°56' W 075°08'0 0.0
2018-Apr-22 01:29N 38°56' W 075°08'0 0.0
2018-Apr-22 00:59N 38°56' W 075°08'0 0.3
2018-Apr-22 00:29N 38°56' W 075°08'0 0.2
2018-Apr-21 23:59N 38°56' W 075°08'0 0.0
2018-Apr-21 23:29N 38°56' W 075°08'0 0.1
2018-Apr-21 22:59N 38°56' W 075°08'0 0.0
2018-Apr-21 22:26N 38°56' W 075°08'0 0.0
2018-Apr-21 21:56N 38°56' W 075°08'0 0.0
2018-Apr-21 21:29N 38°56' W 075°08'0 0.0
2018-Apr-21 12:38N 38°56' W 075°08'0 0.0
2018-Apr-21 11:32N 38°56' W 075°08'0 0.1
2018-Apr-21 11:25N 38°56' W 075°08'0 0.0
2018-Apr-21 10:50N 38°56' W 075°08'0 0.0
2018-Apr-21 08:14N 38°56' W 075°08'0 0.0
2018-Apr-21 06:46N 38°56' W 075°08'0 0.0
2018-Apr-21 06:08N 38°56' W 075°08'0 0.1
2018-Apr-21 05:59N 38°56' W 075°08'0 0.2
2018-Apr-21 05:29N 38°56' W 075°08'0 0.1
2018-Apr-21 04:08N 38°56' W 075°08'0 0.0
2018-Apr-21 03:53N 38°56' W 075°08'0 0.0
2018-Apr-21 02:29N 38°56' W 075°08'0 0.1
2018-Apr-21 01:56N 38°56' W 075°08'0 0.1
2018-Apr-21 01:17N 38°56' W 075°08'0 0.1
2018-Apr-21 00:53N 38°56' W 075°08'0 0.2
2018-Apr-21 00:29N 38°56' W 075°08'0 0.1
2018-Apr-20 23:59N 38°56' W 075°08'0 0.0
2018-Apr-20 23:29N 38°56' W 075°08'0 0.0
2018-Apr-20 22:59N 38°56' W 075°08'0 0.0
2018-Apr-20 20:17N 38°56' W 075°08'0 0.0
2018-Apr-20 19:14N 38°56' W 075°08'0 0.0
2018-Apr-20 18:50N 38°56' W 075°08'0 0.1
2018-Apr-20 14:20N 38°56' W 075°08'0 0.2
2018-Apr-20 13:48N 38°56' W 075°08'0 0.3
2018-Apr-20 13:30N 38°56' W 075°08'0 0.2
2018-Apr-20 13:00N 38°56' W 075°08'0 0.1
2018-Apr-20 12:27N 38°56' W 075°08'1 1.2
2018-Apr-20 11:55N 38°55' W 075°07'4 8.8
2018-Apr-20 11:29N 38°59' W 075°08'510.5
2018-Apr-20 10:58N 39°04' W 075°11'613.0
2018-Apr-20 10:30N 39°09' W 075°15'612.8
2018-Apr-20 10:00N 39°15' W 075°19'611.4
2018-Apr-20 09:29N 39°19' W 075°24'611.9
2018-Apr-20 09:00N 39°23' W 075°29'610.9
2018-Apr-20 08:30N 39°28' W 075°34'5 9.9
2018-Apr-20 08:00N 39°32' W 075°33'5 9.5
2018-Apr-20 07:30N 39°37' W 075°35'4 8.3
2018-Apr-20 07:00N 39°40' W 075°32'5 9.2
2018-Apr-20 06:30N 39°45' W 075°30'4 7.7
2018-Apr-20 06:00N 39°48' W 075°26'4 8.5
2018-Apr-20 05:31N 39°50' W 075°22'4 8.7
2018-Apr-20 05:00N 39°51' W 075°16'3 5.7
2018-Apr-20 04:30N 39°52' W 075°13'0 0.0
2018-Apr-20 03:59N 39°52' W 075°13'0 0.0
2018-Apr-20 03:26N 39°52' W 075°13'0 0.0
2018-Apr-20 02:56N 39°52' W 075°13'0 0.0
2018-Apr-20 02:29N 39°52' W 075°13'0 0.0
2018-Apr-20 01:59N 39°52' W 075°13'0 0.0
2018-Apr-20 01:29N 39°52' W 075°13'0 0.0
2018-Apr-20 00:59N 39°52' W 075°13'0 0.0
2018-Apr-20 00:29N 39°52' W 075°13'0 0.0
2018-Apr-19 23:59N 39°52' W 075°13'0 0.0
2018-Apr-19 23:17N 39°52' W 075°13'0 0.0
2018-Apr-19 22:59N 39°52' W 075°13'0 0.0
2018-Apr-19 22:26N 39°52' W 075°13'0 0.0
2018-Apr-19 21:59N 39°52' W 075°13'0 0.0
2018-Apr-19 21:29N 39°52' W 075°13'0 0.0
2018-Apr-19 20:59N 39°52' W 075°13'0 0.0
2018-Apr-19 20:29N 39°52' W 075°13'0 0.0
2018-Apr-19 19:59N 39°52' W 075°13'0 0.0
2018-Apr-19 19:29N 39°52' W 075°13'0 0.0
2018-Apr-19 18:59N 39°52' W 075°13'0 0.0
2018-Apr-19 18:29N 39°52' W 075°13'0 0.0
2018-Apr-19 17:59N 39°52' W 075°13'0 0.0
2018-Apr-19 17:29N 39°52' W 075°13'0 0.0
2018-Apr-19 16:59N 39°52' W 075°13'0 0.0
2018-Apr-19 16:29N 39°52' W 075°13'0 0.1
2018-Apr-19 16:00N 39°52' W 075°13'3 5.2
2018-Apr-19 15:30N 39°51' W 075°16'5 9.3
2018-Apr-19 15:01N 39°50' W 075°22'5 9.7
2018-Apr-19 14:30N 39°47' W 075°27'5 9.4
2018-Apr-19 14:00N 39°43' W 075°30'5 9.2
2018-Apr-19 13:30N 39°39' W 075°33'4 8.1
2018-Apr-19 13:00N 39°35' W 075°34'4 8.8
2018-Apr-19 12:30N 39°31' W 075°33'4 8.5
2018-Apr-19 12:00N 39°26' W 075°33'5 9.1
2018-Apr-19 11:30N 39°23' W 075°29'5 9.4
2018-Apr-19 11:00N 39°20' W 075°25'4 8.9
2018-Apr-19 10:30N 39°16' W 075°21'4 8.9
2018-Apr-19 10:00N 39°13' W 075°17'5 9.3
2018-Apr-19 09:30N 39°09' W 075°14'5 9.4
2018-Apr-19 09:00N 39°05' W 075°11'5 9.6
2018-Apr-19 08:30N 39°00' W 075°09'5 9.4
2018-Apr-19 08:00N 38°56' W 075°06'3 5.7
2018-Apr-19 07:29N 38°57' W 075°10'1 1.1
2018-Apr-19 06:52N 38°57' W 075°11'0 0.2
2018-Apr-19 04:43N 38°57' W 075°11'0 0.0
2018-Apr-19 04:22N 38°57' W 075°11'0 0.0
2018-Apr-19 03:58N 38°57' W 075°11'0 0.0
2018-Apr-19 03:28N 38°57' W 075°11'0 0.0
2018-Apr-19 02:58N 38°57' W 075°11'0 0.1
2018-Apr-19 02:09N 38°57' W 075°11'0 0.0
2018-Apr-19 02:00N 38°57' W 075°11'0 0.8
2018-Apr-19 01:30N 38°57' W 075°11'5 9.3
2018-Apr-19 01:01N 38°55' W 075°06'4 8.4
2018-Apr-19 00:30N 38°59' W 075°08'5 9.1
2018-Apr-19 00:00N 39°03' W 075°10'510.2
2018-Apr-18 23:30N 39°08' W 075°13'611.2
2018-Apr-18 23:00N 39°12' W 075°17'612.5
2018-Apr-18 22:30N 39°17' W 075°22'612.6
2018-Apr-18 22:00N 39°22' W 075°28'713.0
2018-Apr-18 21:30N 39°27' W 075°33'611.9
2018-Apr-18 21:00N 39°33' W 075°33'510.8
2018-Apr-18 20:31N 39°38' W 075°34'510.5
2018-Apr-18 20:00N 39°43' W 075°31'5 9.9
2018-Apr-18 19:30N 39°47' W 075°27'5 9.3
2018-Apr-18 19:00N 39°50' W 075°23'4 8.3
2018-Apr-18 18:30N 39°51' W 075°17'4 7.4
2018-Apr-18 18:01N 39°52' W 075°13'0 0.2
2018-Apr-18 17:30N 39°52' W 075°13'0 0.0
2018-Apr-18 17:00N 39°52' W 075°13'0 0.0
2018-Apr-18 16:30N 39°52' W 075°13'0 0.0
2018-Apr-18 16:00N 39°52' W 075°13'0 0.0
2018-Apr-18 15:30N 39°52' W 075°13'0 0.0
2018-Apr-18 15:00N 39°52' W 075°13'0 0.0
2018-Apr-18 14:30N 39°52' W 075°13'0 0.0
2018-Apr-18 14:00N 39°52' W 075°13'0 0.0
2018-Apr-18 13:30N 39°52' W 075°13'0 0.0
2018-Apr-18 13:00N 39°52' W 075°13'0 0.0
2018-Apr-18 12:30N 39°52' W 075°13'0 0.0
2018-Apr-18 12:00N 39°52' W 075°13'0 0.0
2018-Apr-18 11:30N 39°52' W 075°13'0 0.0
2018-Apr-18 11:00N 39°52' W 075°13'0 0.0
2018-Apr-18 10:30N 39°52' W 075°13'0 0.0
2018-Apr-18 10:00N 39°52' W 075°13'0 0.0
2018-Apr-18 09:30N 39°52' W 075°13'0 0.0
2018-Apr-18 09:00N 39°52' W 075°13'0 0.0
2018-Apr-18 08:30N 39°52' W 075°13'0 0.0
2018-Apr-18 08:00N 39°52' W 075°13'0 0.0
2018-Apr-18 07:30N 39°52' W 075°13'0 0.0
2018-Apr-18 07:00N 39°52' W 075°13'0 0.0
2018-Apr-18 06:30N 39°52' W 075°13'0 0.0
2018-Apr-18 06:00N 39°52' W 075°13'0 0.0
2018-Apr-18 05:30N 39°52' W 075°13'0 0.0
2018-Apr-18 05:00N 39°52' W 075°13'0 0.0
2018-Apr-18 04:30N 39°52' W 075°13'0 0.0
2018-Apr-18 04:00N 39°52' W 075°13'0 0.0
2018-Apr-18 03:30N 39°52' W 075°13'0 0.0
2018-Apr-18 03:00N 39°52' W 075°13'0 0.0
2018-Apr-18 02:30N 39°52' W 075°13'0 0.0
2018-Apr-18 02:00N 39°52' W 075°13'0 0.0
2018-Apr-18 01:30N 39°52' W 075°13'0 0.0
2018-Apr-18 01:00N 39°52' W 075°13'0 0.0
2018-Apr-18 00:30N 39°52' W 075°13'0 0.0
2018-Apr-18 00:00N 39°52' W 075°13'0 0.0
2018-Apr-17 23:30N 39°52' W 075°13'0 0.0
2018-Apr-17 23:00N 39°52' W 075°13'0 0.0
2018-Apr-17 22:30N 39°52' W 075°13'0 0.0
2018-Apr-17 22:00N 39°52' W 075°13'0 0.0
2018-Apr-17 21:30N 39°52' W 075°13'0 0.0
2018-Apr-17 21:00N 39°52' W 075°13'0 0.8
2018-Apr-17 20:30N 39°52' W 075°13'4 7.4
2018-Apr-17 20:00N 39°51' W 075°18'5 9.9
2018-Apr-17 19:30N 39°49' W 075°24'510.7
2018-Apr-17 19:00N 39°45' W 075°29'510.9
2018-Apr-17 18:30N 39°40' W 075°32'5 9.7
2018-Apr-17 18:00N 39°36' W 075°34'510.5
2018-Apr-17 17:30N 39°31' W 075°33'510.3
2018-Apr-17 17:00N 39°26' W 075°31'611.3
2018-Apr-17 16:30N 39°21' W 075°27'611.6
2018-Apr-17 16:00N 39°17' W 075°22'611.6
2018-Apr-17 15:30N 39°12' W 075°17'611.2
2018-Apr-17 15:00N 39°08' W 075°13'510.9
2018-Apr-17 14:30N 39°03' W 075°10'611.3
2018-Apr-17 14:00N 38°58' W 075°07'3 6.1
2018-Apr-17 13:30N 38°55' W 075°07'3 3.8
2018-Apr-17 12:50N 38°56' W 075°10'0 1.1
2018-Apr-17 12:25N 38°56' W 075°10'0 0.1
2018-Apr-17 11:56N 38°56' W 075°10'0 0.0
2018-Apr-17 03:03N 38°56' W 075°10'0 0.4
2018-Apr-17 03:01N 38°56' W 075°10'1 1.5
2018-Apr-17 02:30N 38°57' W 075°10'5 9.1
2018-Apr-17 01:59N 39°01' W 075°14'0 0.5
2018-Apr-17 01:30N 39°01' W 075°14'0 0.0
2018-Apr-17 00:21N 39°01' W 075°14'0 0.4
2018-Apr-17 00:00N 39°01' W 075°14'0 0.3
2018-Apr-16 23:30N 39°01' W 075°14'0 0.1
2018-Apr-16 23:00N 39°01' W 075°14'0 0.1
2018-Apr-16 22:27N 39°01' W 075°14'0 0.1
2018-Apr-16 22:00N 39°01' W 075°14'0 0.0
2018-Apr-16 21:30N 39°01' W 075°14'0 0.0
2018-Apr-16 20:57N 39°01' W 075°14'0 0.0
2018-Apr-16 20:30N 39°01' W 075°14'0 0.0
2018-Apr-16 20:00N 39°01' W 075°14'0 0.1
2018-Apr-16 19:24N 39°01' W 075°14'0 0.1
2018-Apr-16 19:00N 39°01' W 075°14'0 0.1
2018-Apr-16 18:27N 39°01' W 075°14'0 0.1
2018-Apr-16 18:00N 39°01' W 075°14'0 0.1
2018-Apr-16 17:21N 39°01' W 075°14'0 0.1
2018-Apr-16 17:00N 39°01' W 075°14'0 0.0
2018-Apr-16 16:30N 39°01' W 075°14'0 0.2
2018-Apr-16 16:00N 39°01' W 075°14'0 0.2
2018-Apr-16 15:15N 39°01' W 075°14'0 0.1
2018-Apr-16 15:00N 39°01' W 075°14'0 0.1
2018-Apr-16 14:27N 39°01' W 075°14'0 0.0
2018-Apr-16 13:57N 39°01' W 075°14'0 0.1
2018-Apr-16 13:30N 39°01' W 075°14'0 0.0
2018-Apr-16 12:51N 39°01' W 075°14'0 0.1
2018-Apr-16 12:30N 39°01' W 075°14'0 0.1
2018-Apr-16 12:00N 39°01' W 075°14'0 0.1
2018-Apr-16 11:30N 39°01' W 075°14'0 0.1
2018-Apr-16 11:00N 39°01' W 075°14'0 0.1
2018-Apr-16 10:09N 39°01' W 075°14'0 0.1
2018-Apr-16 09:06N 39°01' W 075°14'0 0.1
2018-Apr-16 07:57N 39°01' W 075°14'0 0.2
2018-Apr-16 07:30N 39°00' W 075°14'0 0.1
2018-Apr-16 06:36N 39°00' W 075°14'0 0.0
2018-Apr-16 06:30N 39°00' W 075°14'0 0.1
2018-Apr-16 06:00N 39°00' W 075°14'0 0.1
2018-Apr-16 05:30N 39°00' W 075°14'0 0.1
2018-Apr-16 05:00N 39°00' W 075°14'0 0.0
2018-Apr-16 04:30N 39°00' W 075°14'0 0.1
2018-Apr-16 04:00N 39°00' W 075°14'0 0.2
2018-Apr-16 03:30N 39°01' W 075°14'0 0.1
2018-Apr-16 03:00N 39°00' W 075°14'0 0.3
2018-Apr-16 02:30N 39°01' W 075°14'0 0.2
2018-Apr-16 02:00N 39°01' W 075°14'0 0.0
2018-Apr-16 01:30N 39°01' W 075°14'0 0.0
2018-Apr-16 01:00N 39°01' W 075°14'0 0.0
2018-Apr-16 00:30N 39°01' W 075°14'0 0.0
2018-Apr-16 00:00N 39°01' W 075°14'0 0.0
2018-Apr-15 23:30N 39°01' W 075°14'0 0.1
2018-Apr-15 23:00N 39°01' W 075°14'0 0.1
2018-Apr-15 22:27N 39°01' W 075°14'0 0.1
2018-Apr-15 22:00N 39°01' W 075°14'0 0.1
2018-Apr-15 21:30N 39°01' W 075°14'0 0.1
2018-Apr-15 21:00N 39°01' W 075°14'0 0.1
2018-Apr-15 20:30N 39°01' W 075°14'0 0.0
2018-Apr-15 19:57N 39°01' W 075°14'0 0.0
2018-Apr-15 19:30N 39°01' W 075°14'0 0.0
2018-Apr-15 18:57N 39°01' W 075°14'0 0.0
2018-Apr-15 18:30N 39°01' W 075°14'0 0.0
2018-Apr-15 18:00N 39°01' W 075°14'0 0.0
2018-Apr-15 17:27N 39°01' W 075°14'0 0.0
2018-Apr-15 17:00N 39°01' W 075°14'0 0.1
2018-Apr-15 16:30N 39°00' W 075°14'0 0.2
2018-Apr-15 16:00N 39°01' W 075°14'0 0.2
2018-Apr-15 15:30N 39°01' W 075°14'0 0.1
2018-Apr-15 15:00N 39°01' W 075°14'0 0.1
2018-Apr-15 14:30N 39°01' W 075°14'0 0.0
2018-Apr-15 14:00N 39°01' W 075°14'0 0.0
2018-Apr-15 13:30N 39°01' W 075°14'0 0.0
2018-Apr-15 12:57N 39°01' W 075°14'0 0.0
2018-Apr-15 12:24N 39°01' W 075°14'0 0.0
2018-Apr-15 09:36N 39°01' W 075°14'0 0.1
2018-Apr-15 09:15N 39°01' W 075°14'0 0.0
2018-Apr-15 08:48N 39°01' W 075°14'0 0.0
2018-Apr-15 08:12N 39°01' W 075°14'0 0.1
2018-Apr-15 08:00N 39°01' W 075°14'0 0.1
2018-Apr-15 07:30N 39°01' W 075°14'0 0.1
2018-Apr-15 07:00N 39°01' W 075°14'0 0.2
2018-Apr-15 06:15N 39°01' W 075°14'0 0.1
2018-Apr-15 05:57N 39°01' W 075°14'0 0.0
2018-Apr-15 05:00N 39°01' W 075°14'0 0.2
2018-Apr-15 04:15N 39°01' W 075°14'0 0.1
2018-Apr-15 04:00N 39°01' W 075°14'0 0.2
2018-Apr-15 03:27N 39°01' W 075°14'0 0.0
2018-Apr-15 03:00N 39°01' W 075°14'0 0.0
2018-Apr-15 02:30N 39°01' W 075°14'0 0.0
2018-Apr-15 02:00N 39°01' W 075°14'0 0.0
2018-Apr-15 01:27N 39°01' W 075°14'0 0.0
2018-Apr-15 01:00N 39°01' W 075°14'0 0.0
2018-Apr-15 00:30N 39°01' W 075°14'0 0.0
2018-Apr-15 00:00N 39°01' W 075°14'0 0.0
2018-Apr-14 23:30N 39°01' W 075°14'0 0.0
2018-Apr-14 23:00N 39°01' W 075°14'0 0.1
2018-Apr-14 20:31N 39°01' W 075°14'0 1.5
2018-Apr-14 20:30N 39°01' W 075°14'4 8.3
2018-Apr-14 20:00N 38°57' W 075°11'3 3.5
2018-Apr-14 19:06N 38°60' W 075°08'113.4
2018-Apr-14 19:00N 39°01' W 075°09'611.7
2018-Apr-14 18:30N 39°06' W 075°12'611.6
2018-Apr-14 18:00N 39°11' W 075°17'612.2
2018-Apr-14 17:30N 39°16' W 075°21'612.0
2018-Apr-14 17:00N 39°21' W 075°26'611.2
2018-Apr-14 16:30N 39°25' W 075°31'5 9.8
2018-Apr-14 16:00N 39°29' W 075°34'5 9.3
2018-Apr-14 15:30N 39°34' W 075°33'4 8.5
2018-Apr-14 15:00N 39°38' W 075°35'4 8.7
2018-Apr-14 14:30N 39°41' W 075°31'4 7.2
2018-Apr-14 14:00N 39°45' W 075°30'  
Track history (hours):
 
Tides and Currents Weather Stations Pressure Air Temp Water Temp Dewpoint Dewpoint Depression Visibility Wind Speed Wind Dir Waves Ship Positions

Osg Vision

Owner: OSG Ship Management Inc., Tampa, FL. More information available from US FCC via Universal Licensing System and Coast Guard Vessel Documentation Center.

Last reported at 2018-Apr-24 13:58 UTC. Time now 2018-Apr-24 14:29 UTC.
Position N 39°52' W 075°13'.

Length 213 m; draft 7.9 m.

Type: Tanker. MMSI: 369235000.

Date/timePositionNaut miles runAvg speedWind from/ knotsBaromVisibWave heightAir tempDewpointWater temp
2018-Apr-24 13:58N 39°52' W 075°13'0 0.1
2018-Apr-24 13:28N 39°52' W 075°13'0 0.1
2018-Apr-24 12:58N 39°52' W 075°13'0 0.0
2018-Apr-24 12:26N 39°52' W 075°13'0 0.0
2018-Apr-24 11:57N 39°52' W 075°13'0 0.0
2018-Apr-24 11:30N 39°52' W 075°13'0 0.0
2018-Apr-24 11:00N 39°52' W 075°13'0 0.0
2018-Apr-24 10:30N 39°52' W 075°13'0 0.0
2018-Apr-24 10:00N 39°52' W 075°13'0 0.0
2018-Apr-24 09:30N 39°52' W 075°13'0 0.2
2018-Apr-24 09:01N 39°52' W 075°13'0 0.4
2018-Apr-24 08:30N 39°52' W 075°13'0 0.0
2018-Apr-24 08:00N 39°52' W 075°13'0 0.0
2018-Apr-24 07:30N 39°52' W 075°13'0 0.5
2018-Apr-24 07:00N 39°52' W 075°13'0 1.0
2018-Apr-24 06:30N 39°51' W 075°14'0 0.0
2018-Apr-24 06:00N 39°51' W 075°14'0 0.0
2018-Apr-24 05:30N 39°51' W 075°14'0 0.0
2018-Apr-24 05:00N 39°51' W 075°14'0 0.0
2018-Apr-24 04:31N 39°51' W 075°14'1 1.4
2018-Apr-24 04:00N 39°52' W 075°13'0 0.6
2018-Apr-24 03:30N 39°52' W 075°13'0 0.0
2018-Apr-24 03:00N 39°52' W 075°13'0 0.0
2018-Apr-24 02:30N 39°52' W 075°13'0 0.0
2018-Apr-24 02:00N 39°52' W 075°13'0 0.0
2018-Apr-24 01:30N 39°52' W 075°13'0 0.0
2018-Apr-24 01:00N 39°52' W 075°13'0 0.0
2018-Apr-24 00:30N 39°52' W 075°13'0 0.0
2018-Apr-24 00:00N 39°52' W 075°13'0 0.0
2018-Apr-23 23:30N 39°52' W 075°13'0 0.0
2018-Apr-23 23:00N 39°52' W 075°13'0 0.0
2018-Apr-23 22:30N 39°52' W 075°13'0 0.0
2018-Apr-23 22:00N 39°52' W 075°13'0 0.0
2018-Apr-23 21:30N 39°52' W 075°13'0 0.0
2018-Apr-23 21:00N 39°52' W 075°13'0 0.0
2018-Apr-23 20:30N 39°52' W 075°13'0 0.0
2018-Apr-23 20:00N 39°52' W 075°13'0 0.0
2018-Apr-23 19:30N 39°52' W 075°13'0 0.0
2018-Apr-23 19:00N 39°52' W 075°13'0 0.0
2018-Apr-23 18:30N 39°52' W 075°13'0 0.0
2018-Apr-23 18:00N 39°52' W 075°13'0 0.0
2018-Apr-23 17:30N 39°52' W 075°13'0 0.0
2018-Apr-23 16:57N 39°52' W 075°13'0 0.0
2018-Apr-23 16:30N 39°52' W 075°13'0 0.0
2018-Apr-23 16:00N 39°52' W 075°13'0 0.0
2018-Apr-23 15:30N 39°52' W 075°13'0 0.0
2018-Apr-23 15:00N 39°52' W 075°13'0 0.0
2018-Apr-23 14:30N 39°52' W 075°13'0 0.0
2018-Apr-23 14:00N 39°52' W 075°13'0 0.0
2018-Apr-23 13:30N 39°52' W 075°13'0 0.0
2018-Apr-23 13:00N 39°52' W 075°13'0 0.0
2018-Apr-23 12:30N 39°52' W 075°13'0 0.0
2018-Apr-23 12:00N 39°52' W 075°13'0 0.0
2018-Apr-23 11:30N 39°52' W 075°13'0 0.0
2018-Apr-23 11:00N 39°52' W 075°13'0 0.0
2018-Apr-23 10:30N 39°52' W 075°13'0 0.0
2018-Apr-23 10:00N 39°52' W 075°13'0 0.0
2018-Apr-23 09:30N 39°52' W 075°13'0 0.0
2018-Apr-23 09:00N 39°52' W 075°13'0 0.0
2018-Apr-23 08:30N 39°52' W 075°13'0 0.0
2018-Apr-23 08:00N 39°52' W 075°13'0 0.0
2018-Apr-23 07:30N 39°52' W 075°13'0 0.0
2018-Apr-23 07:00N 39°52' W 075°13'0 0.0
2018-Apr-23 06:30N 39°52' W 075°13'0 0.0
2018-Apr-23 06:00N 39°52' W 075°13'0 0.0
2018-Apr-23 05:30N 39°52' W 075°13'0 0.0
2018-Apr-23 05:00N 39°52' W 075°13'0 0.9
2018-Apr-23 04:30N 39°52' W 075°13'4 7.8
2018-Apr-23 04:01N 39°51' W 075°18'4 8.0
2018-Apr-23 03:30N 39°49' W 075°23'4 8.4
2018-Apr-23 03:00N 39°47' W 075°28'4 8.8
2018-Apr-23 02:31N 39°43' W 075°30'4 8.6
2018-Apr-23 02:00N 39°39' W 075°33'4 7.4
2018-Apr-23 01:30N 39°35' W 075°34'4 8.6
2018-Apr-23 01:01N 39°31' W 075°33'4 8.7
2018-Apr-23 00:30N 39°27' W 075°33'5 9.4
2018-Apr-23 00:00N 39°23' W 075°29'5 9.4
2018-Apr-22 23:30N 39°20' W 075°25'5 9.7
2018-Apr-22 22:59N 39°16' W 075°21'510.1
2018-Apr-22 22:30N 39°12' W 075°17'510.2
2018-Apr-22 22:00N 39°08' W 075°14'510.1
2018-Apr-22 21:30N 39°04' W 075°10'611.4
2018-Apr-22 21:00N 38°58' W 075°07'4 0.5
2018-Apr-22 12:14N 38°54' W 075°09'0 0.1
2018-Apr-22 12:00N 38°54' W 075°09'1 2.2
2018-Apr-22 11:28N 38°55' W 075°07'1 1.8
2018-Apr-22 10:58N 38°56' W 075°08'0 0.0
2018-Apr-22 10:25N 38°56' W 075°08'0 0.0
2018-Apr-22 09:58N 38°56' W 075°08'0 0.1
2018-Apr-22 09:25N 38°56' W 075°08'0 0.0
2018-Apr-22 09:00N 38°56' W 075°08'0 0.1
2018-Apr-22 05:47N 38°56' W 075°08'0 0.0
2018-Apr-22 05:29N 38°56' W 075°08'0 0.0
2018-Apr-22 05:00N 38°56' W 075°08'0 0.0
2018-Apr-22 04:21N 38°56' W 075°08'0 0.1
2018-Apr-22 04:00N 38°56' W 075°08'0 0.0
2018-Apr-22 03:26N 38°56' W 075°08'0 0.0
2018-Apr-22 02:59N 38°56' W 075°08'0 0.0
2018-Apr-22 02:29N 38°56' W 075°08'0 0.0
2018-Apr-22 01:59N 38°56' W 075°08'0 0.0
2018-Apr-22 01:29N 38°56' W 075°08'0 0.0
2018-Apr-22 00:59N 38°56' W 075°08'0 0.3
2018-Apr-22 00:29N 38°56' W 075°08'0 0.2
2018-Apr-21 23:59N 38°56' W 075°08'0 0.0
2018-Apr-21 23:29N 38°56' W 075°08'0 0.1
2018-Apr-21 22:59N 38°56' W 075°08'0 0.0
2018-Apr-21 22:26N 38°56' W 075°08'0 0.0
2018-Apr-21 21:56N 38°56' W 075°08'0 0.0
2018-Apr-21 21:29N 38°56' W 075°08'0 0.0
2018-Apr-21 12:38N 38°56' W 075°08'0 0.0
2018-Apr-21 11:32N 38°56' W 075°08'0 0.1
2018-Apr-21 11:25N 38°56' W 075°08'0 0.0
2018-Apr-21 10:50N 38°56' W 075°08'0 0.0
2018-Apr-21 08:14N 38°56' W 075°08'0 0.0
2018-Apr-21 06:46N 38°56' W 075°08'0 0.0
2018-Apr-21 06:08N 38°56' W 075°08'0 0.1
2018-Apr-21 05:59N 38°56' W 075°08'0 0.2
2018-Apr-21 05:29N 38°56' W 075°08'0 0.1
2018-Apr-21 04:08N 38°56' W 075°08'0 0.0
2018-Apr-21 03:53N 38°56' W 075°08'0 0.0
2018-Apr-21 02:29N 38°56' W 075°08'0 0.1
2018-Apr-21 01:56N 38°56' W 075°08'0 0.1
2018-Apr-21 01:17N 38°56' W 075°08'0 0.1
2018-Apr-21 00:53N 38°56' W 075°08'0 0.2
2018-Apr-21 00:29N 38°56' W 075°08'0 0.1
2018-Apr-20 23:59N 38°56' W 075°08'0 0.0
2018-Apr-20 23:29N 38°56' W 075°08'0 0.0
2018-Apr-20 22:59N 38°56' W 075°08'0 0.0
2018-Apr-20 20:17N 38°56' W 075°08'0 0.0
2018-Apr-20 19:14N 38°56' W 075°08'0 0.0
2018-Apr-20 18:50N 38°56' W 075°08'0 0.1
2018-Apr-20 14:20N 38°56' W 075°08'0 0.2
2018-Apr-20 13:48N 38°56' W 075°08'0 0.3
2018-Apr-20 13:30N 38°56' W 075°08'0 0.2
2018-Apr-20 13:00N 38°56' W 075°08'0 0.1
2018-Apr-20 12:27N 38°56' W 075°08'1 1.2
2018-Apr-20 11:55N 38°55' W 075°07'4 8.8
2018-Apr-20 11:29N 38°59' W 075°08'510.5
2018-Apr-20 10:58N 39°04' W 075°11'613.0
2018-Apr-20 10:30N 39°09' W 075°15'612.8
2018-Apr-20 10:00N 39°15' W 075°19'611.4
2018-Apr-20 09:29N 39°19' W 075°24'611.9
2018-Apr-20 09:00N 39°23' W 075°29'610.9
2018-Apr-20 08:30N 39°28' W 075°34'5 9.9
2018-Apr-20 08:00N 39°32' W 075°33'5 9.5
2018-Apr-20 07:30N 39°37' W 075°35'4 8.3
2018-Apr-20 07:00N 39°40' W 075°32'5 9.2
2018-Apr-20 06:30N 39°45' W 075°30'4 7.7
2018-Apr-20 06:00N 39°48' W 075°26'4 8.5
2018-Apr-20 05:31N 39°50' W 075°22'4 8.7
2018-Apr-20 05:00N 39°51' W 075°16'3 5.7
2018-Apr-20 04:30N 39°52' W 075°13'0 0.0
2018-Apr-20 03:59N 39°52' W 075°13'0 0.0
2018-Apr-20 03:26N 39°52' W 075°13'0 0.0
2018-Apr-20 02:56N 39°52' W 075°13'0 0.0
2018-Apr-20 02:29N 39°52' W 075°13'0 0.0
2018-Apr-20 01:59N 39°52' W 075°13'0 0.0
2018-Apr-20 01:29N 39°52' W 075°13'0 0.0
2018-Apr-20 00:59N 39°52' W 075°13'0 0.0
2018-Apr-20 00:29N 39°52' W 075°13'0 0.0
2018-Apr-19 23:59N 39°52' W 075°13'0 0.0
2018-Apr-19 23:17N 39°52' W 075°13'0 0.0
2018-Apr-19 22:59N 39°52' W 075°13'0 0.0
2018-Apr-19 22:26N 39°52' W 075°13'0 0.0
2018-Apr-19 21:59N 39°52' W 075°13'0 0.0
2018-Apr-19 21:29N 39°52' W 075°13'0 0.0
2018-Apr-19 20:59N 39°52' W 075°13'0 0.0
2018-Apr-19 20:29N 39°52' W 075°13'0 0.0
2018-Apr-19 19:59N 39°52' W 075°13'0 0.0
2018-Apr-19 19:29N 39°52' W 075°13'0 0.0
2018-Apr-19 18:59N 39°52' W 075°13'0 0.0
2018-Apr-19 18:29N 39°52' W 075°13'0 0.0
2018-Apr-19 17:59N 39°52' W 075°13'0 0.0
2018-Apr-19 17:29N 39°52' W 075°13'0 0.0
2018-Apr-19 16:59N 39°52' W 075°13'0 0.0
2018-Apr-19 16:29N 39°52' W 075°13'0 0.1
2018-Apr-19 16:00N 39°52' W 075°13'3 5.2
2018-Apr-19 15:30N 39°51' W 075°16'5 9.3
2018-Apr-19 15:01N 39°50' W 075°22'5 9.7
2018-Apr-19 14:30N 39°47' W 075°27'5 9.4
2018-Apr-19 14:00N 39°43' W 075°30'5 9.2
2018-Apr-19 13:30N 39°39' W 075°33'4 8.1
2018-Apr-19 13:00N 39°35' W 075°34'4 8.8
2018-Apr-19 12:30N 39°31' W 075°33'4 8.5
2018-Apr-19 12:00N 39°26' W 075°33'5 9.1
2018-Apr-19 11:30N 39°23' W 075°29'5 9.4
2018-Apr-19 11:00N 39°20' W 075°25'4 8.9
2018-Apr-19 10:30N 39°16' W 075°21'4 8.9
2018-Apr-19 10:00N 39°13' W 075°17'5 9.3
2018-Apr-19 09:30N 39°09' W 075°14'5 9.4
2018-Apr-19 09:00N 39°05' W 075°11'5 9.6
2018-Apr-19 08:30N 39°00' W 075°09'5 9.4
2018-Apr-19 08:00N 38°56' W 075°06'3 5.7
2018-Apr-19 07:29N 38°57' W 075°10'1 1.1
2018-Apr-19 06:52N 38°57' W 075°11'0 0.2
2018-Apr-19 04:43N 38°57' W 075°11'0 0.0
2018-Apr-19 04:22N 38°57' W 075°11'0 0.0
2018-Apr-19 03:58N 38°57' W 075°11'0 0.0
2018-Apr-19 03:28N 38°57' W 075°11'0 0.0
2018-Apr-19 02:58N 38°57' W 075°11'0 0.1
2018-Apr-19 02:09N 38°57' W 075°11'0 0.0
2018-Apr-19 02:00N 38°57' W 075°11'0 0.8
2018-Apr-19 01:30N 38°57' W 075°11'5 9.3
2018-Apr-19 01:01N 38°55' W 075°06'4 8.4
2018-Apr-19 00:30N 38°59' W 075°08'5 9.1
2018-Apr-19 00:00N 39°03' W 075°10'510.2
2018-Apr-18 23:30N 39°08' W 075°13'611.2
2018-Apr-18 23:00N 39°12' W 075°17'612.5
2018-Apr-18 22:30N 39°17' W 075°22'612.6
2018-Apr-18 22:00N 39°22' W 075°28'713.0
2018-Apr-18 21:30N 39°27' W 075°33'611.9
2018-Apr-18 21:00N 39°33' W 075°33'510.8
2018-Apr-18 20:31N 39°38' W 075°34'510.5
2018-Apr-18 20:00N 39°43' W 075°31'5 9.9
2018-Apr-18 19:30N 39°47' W 075°27'5 9.3
2018-Apr-18 19:00N 39°50' W 075°23'4 8.3
2018-Apr-18 18:30N 39°51' W 075°17'4 7.4
2018-Apr-18 18:01N 39°52' W 075°13'0 0.2
2018-Apr-18 17:30N 39°52' W 075°13'0 0.0
2018-Apr-18 17:00N 39°52' W 075°13'0 0.0
2018-Apr-18 16:30N 39°52' W 075°13'0 0.0
2018-Apr-18 16:00N 39°52' W 075°13'0 0.0
2018-Apr-18 15:30N 39°52' W 075°13'0 0.0
2018-Apr-18 15:00N 39°52' W 075°13'0 0.0
2018-Apr-18 14:30N 39°52' W 075°13'0 0.0
2018-Apr-18 14:00N 39°52' W 075°13'0 0.0
2018-Apr-18 13:30N 39°52' W 075°13'0 0.0
2018-Apr-18 13:00N 39°52' W 075°13'0 0.0
2018-Apr-18 12:30N 39°52' W 075°13'0 0.0
2018-Apr-18 12:00N 39°52' W 075°13'0 0.0
2018-Apr-18 11:30N 39°52' W 075°13'0 0.0
2018-Apr-18 11:00N 39°52' W 075°13'0 0.0
2018-Apr-18 10:30N 39°52' W 075°13'0 0.0
2018-Apr-18 10:00N 39°52' W 075°13'0 0.0
2018-Apr-18 09:30N 39°52' W 075°13'0 0.0
2018-Apr-18 09:00N 39°52' W 075°13'0 0.0
2018-Apr-18 08:30N 39°52' W 075°13'0 0.0
2018-Apr-18 08:00N 39°52' W 075°13'0 0.0
2018-Apr-18 07:30N 39°52' W 075°13'0 0.0
2018-Apr-18 07:00N 39°52' W 075°13'0 0.0
2018-Apr-18 06:30N 39°52' W 075°13'0 0.0
2018-Apr-18 06:00N 39°52' W 075°13'0 0.0
2018-Apr-18 05:30N 39°52' W 075°13'0 0.0
2018-Apr-18 05:00N 39°52' W 075°13'0 0.0
2018-Apr-18 04:30N 39°52' W 075°13'0 0.0
2018-Apr-18 04:00N 39°52' W 075°13'0 0.0
2018-Apr-18 03:30N 39°52' W 075°13'0 0.0
2018-Apr-18 03:00N 39°52' W 075°13'0 0.0
2018-Apr-18 02:30N 39°52' W 075°13'0 0.0
2018-Apr-18 02:00N 39°52' W 075°13'0 0.0
2018-Apr-18 01:30N 39°52' W 075°13'0 0.0
2018-Apr-18 01:00N 39°52' W 075°13'0 0.0
2018-Apr-18 00:30N 39°52' W 075°13'0 0.0
2018-Apr-18 00:00N 39°52' W 075°13'0 0.0
2018-Apr-17 23:30N 39°52' W 075°13'0 0.0
2018-Apr-17 23:00N 39°52' W 075°13'0 0.0
2018-Apr-17 22:30N 39°52' W 075°13'0 0.0
2018-Apr-17 22:00N 39°52' W 075°13'0 0.0
2018-Apr-17 21:30N 39°52' W 075°13'0 0.0
2018-Apr-17 21:00N 39°52' W 075°13'0 0.8
2018-Apr-17 20:30N 39°52' W 075°13'4 7.4
2018-Apr-17 20:00N 39°51' W 075°18'5 9.9
2018-Apr-17 19:30N 39°49' W 075°24'510.7
2018-Apr-17 19:00N 39°45' W 075°29'510.9
2018-Apr-17 18:30N 39°40' W 075°32'5 9.7
2018-Apr-17 18:00N 39°36' W 075°34'510.5
2018-Apr-17 17:30N 39°31' W 075°33'510.3
2018-Apr-17 17:00N 39°26' W 075°31'611.3
2018-Apr-17 16:30N 39°21' W 075°27'611.6
2018-Apr-17 16:00N 39°17' W 075°22'611.6
2018-Apr-17 15:30N 39°12' W 075°17'611.2
2018-Apr-17 15:00N 39°08' W 075°13'510.9
2018-Apr-17 14:30N 39°03' W 075°10'611.3
2018-Apr-17 14:00N 38°58' W 075°07'3 6.1
2018-Apr-17 13:30N 38°55' W 075°07'3 3.8
2018-Apr-17 12:50N 38°56' W 075°10'0 1.1
2018-Apr-17 12:25N 38°56' W 075°10'0 0.1
2018-Apr-17 11:56N 38°56' W 075°10'0 0.0
2018-Apr-17 03:03N 38°56' W 075°10'0 0.4
2018-Apr-17 03:01N 38°56' W 075°10'1 1.5
2018-Apr-17 02:30N 38°57' W 075°10'5 9.1
2018-Apr-17 01:59N 39°01' W 075°14'0 0.5
2018-Apr-17 01:30N 39°01' W 075°14'0 0.0
2018-Apr-17 00:21N 39°01' W 075°14'0 0.4
2018-Apr-17 00:00N 39°01' W 075°14'0 0.3
2018-Apr-16 23:30N 39°01' W 075°14'0 0.1
2018-Apr-16 23:00N 39°01' W 075°14'0 0.1
2018-Apr-16 22:27N 39°01' W 075°14'0 0.1
2018-Apr-16 22:00N 39°01' W 075°14'0 0.0
2018-Apr-16 21:30N 39°01' W 075°14'0 0.0
2018-Apr-16 20:57N 39°01' W 075°14'0 0.0
2018-Apr-16 20:30N 39°01' W 075°14'0 0.0
2018-Apr-16 20:00N 39°01' W 075°14'0 0.1
2018-Apr-16 19:24N 39°01' W 075°14'0 0.1
2018-Apr-16 19:00N 39°01' W 075°14'0 0.1
2018-Apr-16 18:27N 39°01' W 075°14'0 0.1
2018-Apr-16 18:00N 39°01' W 075°14'0 0.1
2018-Apr-16 17:21N 39°01' W 075°14'0 0.1
2018-Apr-16 17:00N 39°01' W 075°14'0 0.0
2018-Apr-16 16:30N 39°01' W 075°14'0 0.2
2018-Apr-16 16:00N 39°01' W 075°14'0 0.2
2018-Apr-16 15:15N 39°01' W 075°14'0 0.1
2018-Apr-16 15:00N 39°01' W 075°14'0 0.1
2018-Apr-16 14:27N 39°01' W 075°14'0 0.0
2018-Apr-16 13:57N 39°01' W 075°14'0 0.1
2018-Apr-16 13:30N 39°01' W 075°14'0 0.0
2018-Apr-16 12:51N 39°01' W 075°14'0 0.1
2018-Apr-16 12:30N 39°01' W 075°14'0 0.1
2018-Apr-16 12:00N 39°01' W 075°14'0 0.1
2018-Apr-16 11:30N 39°01' W 075°14'0 0.1
2018-Apr-16 11:00N 39°01' W 075°14'0 0.1
2018-Apr-16 10:09N 39°01' W 075°14'0 0.1
2018-Apr-16 09:06N 39°01' W 075°14'0 0.1
2018-Apr-16 07:57N 39°01' W 075°14'0 0.2
2018-Apr-16 07:30N 39°00' W 075°14'0 0.1
2018-Apr-16 06:36N 39°00' W 075°14'0 0.0
2018-Apr-16 06:30N 39°00' W 075°14'0 0.1
2018-Apr-16 06:00N 39°00' W 075°14'0 0.1
2018-Apr-16 05:30N 39°00' W 075°14'0 0.1
2018-Apr-16 05:00N 39°00' W 075°14'0 0.0
2018-Apr-16 04:30N 39°00' W 075°14'0 0.1
2018-Apr-16 04:00N 39°00' W 075°14'0 0.2
2018-Apr-16 03:30N 39°01' W 075°14'0 0.1
2018-Apr-16 03:00N 39°00' W 075°14'0 0.3
2018-Apr-16 02:30N 39°01' W 075°14'0 0.2
2018-Apr-16 02:00N 39°01' W 075°14'0 0.0
2018-Apr-16 01:30N 39°01' W 075°14'0 0.0
2018-Apr-16 01:00N 39°01' W 075°14'0 0.0
2018-Apr-16 00:30N 39°01' W 075°14'0 0.0
2018-Apr-16 00:00N 39°01' W 075°14'0 0.0
2018-Apr-15 23:30N 39°01' W 075°14'0 0.1
2018-Apr-15 23:00N 39°01' W 075°14'0 0.1
2018-Apr-15 22:27N 39°01' W 075°14'0 0.1
2018-Apr-15 22:00N 39°01' W 075°14'0 0.1
2018-Apr-15 21:30N 39°01' W 075°14'0 0.1
2018-Apr-15 21:00N 39°01' W 075°14'0 0.1
2018-Apr-15 20:30N 39°01' W 075°14'0 0.0
2018-Apr-15 19:57N 39°01' W 075°14'0 0.0
2018-Apr-15 19:30N 39°01' W 075°14'0 0.0
2018-Apr-15 18:57N 39°01' W 075°14'0 0.0
2018-Apr-15 18:30N 39°01' W 075°14'0 0.0
2018-Apr-15 18:00N 39°01' W 075°14'0 0.0
2018-Apr-15 17:27N 39°01' W 075°14'0 0.0
2018-Apr-15 17:00N 39°01' W 075°14'0 0.1
2018-Apr-15 16:30N 39°00' W 075°14'0 0.2
2018-Apr-15 16:00N 39°01' W 075°14'0 0.2
2018-Apr-15 15:30N 39°01' W 075°14'0 0.1
2018-Apr-15 15:00N 39°01' W 075°14'0 0.1
2018-Apr-15 14:30N 39°01' W 075°14'0 0.0
2018-Apr-15 14:00N 39°01' W 075°14'0 0.0
2018-Apr-15 13:30N 39°01' W 075°14'0 0.0
2018-Apr-15 12:57N 39°01' W 075°14'0 0.0
2018-Apr-15 12:24N 39°01' W 075°14'0 0.0
2018-Apr-15 09:36N 39°01' W 075°14'0 0.1
2018-Apr-15 09:15N 39°01' W 075°14'0 0.0
2018-Apr-15 08:48N 39°01' W 075°14'0 0.0
2018-Apr-15 08:12N 39°01' W 075°14'0 0.1
2018-Apr-15 08:00N 39°01' W 075°14'0 0.1
2018-Apr-15 07:30N 39°01' W 075°14'0 0.1
2018-Apr-15 07:00N 39°01' W 075°14'0 0.2
2018-Apr-15 06:15N 39°01' W 075°14'0 0.1
2018-Apr-15 05:57N 39°01' W 075°14'0 0.0
2018-Apr-15 05:00N 39°01' W 075°14'0 0.2
2018-Apr-15 04:15N 39°01' W 075°14'0 0.1
2018-Apr-15 04:00N 39°01' W 075°14'0 0.2
2018-Apr-15 03:27N 39°01' W 075°14'0 0.0
2018-Apr-15 03:00N 39°01' W 075°14'0 0.0
2018-Apr-15 02:30N 39°01' W 075°14'0 0.0
2018-Apr-15 02:00N 39°01' W 075°14'0 0.0
2018-Apr-15 01:27N 39°01' W 075°14'0 0.0
2018-Apr-15 01:00N 39°01' W 075°14'0 0.0
2018-Apr-15 00:30N 39°01' W 075°14'0 0.0
2018-Apr-15 00:00N 39°01' W 075°14'0 0.0
2018-Apr-14 23:30N 39°01' W 075°14'0 0.0
2018-Apr-14 23:00N 39°01' W 075°14'0 0.1
2018-Apr-14 20:31N 39°01' W 075°14'0 1.5
2018-Apr-14 20:30N 39°01' W 075°14'4 8.3
2018-Apr-14 20:00N 38°57' W 075°11'3 3.5
2018-Apr-14 19:06N 38°60' W 075°08'113.4
2018-Apr-14 19:00N 39°01' W 075°09'611.7
2018-Apr-14 18:30N 39°06' W 075°12'611.6
2018-Apr-14 18:00N 39°11' W 075°17'612.2
2018-Apr-14 17:30N 39°16' W 075°21'612.0
2018-Apr-14 17:00N 39°21' W 075°26'611.2
2018-Apr-14 16:30N 39°25' W 075°31'5 9.8
2018-Apr-14 16:00N 39°29' W 075°34'5 9.3
2018-Apr-14 15:30N 39°34' W 075°33'4 8.5
2018-Apr-14 15:00N 39°38' W 075°35'4 8.7
2018-Apr-14 14:30N 39°41' W 075°31'4 7.2
2018-Apr-14 14:00N 39°45' W 075°30'  

Dump ship's entire track history